sensor_id;sensor_type;location;lat;lon;timestamp;pressure;altitude;pressure_sealevel;temperature;humidity
67397;BME280;57728;50.448;18.824;2023-06-14T00:00:40;97794.66;;;13.16;65.90
67397;BME280;57728;50.448;18.824;2023-06-14T00:02:41;97796.84;;;13.14;66.03
67397;BME280;57728;50.448;18.824;2023-06-14T00:04:43;97796.75;;;13.08;66.33
67397;BME280;57728;50.448;18.824;2023-06-14T00:06:45;97770.25;;;12.87;66.50
67397;BME280;57728;50.448;18.824;2023-06-14T00:08:47;97794.47;;;13.00;66.77
67397;BME280;57728;50.448;18.824;2023-06-14T00:10:48;97799.91;;;13.00;66.92
67397;BME280;57728;50.448;18.824;2023-06-14T00:12:50;97795.56;;;12.99;67.06
67397;BME280;57728;50.448;18.824;2023-06-14T00:14:52;97779.00;;;12.89;67.11
67397;BME280;57728;50.448;18.824;2023-06-14T00:16:53;97752.47;;;12.67;67.55
67397;BME280;57728;50.448;18.824;2023-06-14T00:19:00;97787.53;;;12.93;67.85
67397;BME280;57728;50.448;18.824;2023-06-14T00:21:05;97716.69;;;12.47;67.79
67397;BME280;57728;50.448;18.824;2023-06-14T00:23:06;97775.13;;;12.85;67.70
67397;BME280;57728;50.448;18.824;2023-06-14T00:25:08;97754.47;;;12.72;68.02
67397;BME280;57728;50.448;18.824;2023-06-14T00:27:10;97776.53;;;12.87;68.09
67397;BME280;57728;50.448;18.824;2023-06-14T00:29:14;97780.09;;;12.88;67.88
67397;BME280;57728;50.448;18.824;2023-06-14T00:31:16;97759.75;;;12.79;67.94
67397;BME280;57728;50.448;18.824;2023-06-14T00:33:18;97761.41;;;12.80;68.18
67397;BME280;57728;50.448;18.824;2023-06-14T00:35:19;97791.69;;;12.95;68.20
67397;BME280;57728;50.448;18.824;2023-06-14T00:37:21;97788.09;;;12.95;68.16
67397;BME280;57728;50.448;18.824;2023-06-14T00:39:23;97780.75;;;12.95;68.31
67397;BME280;57728;50.448;18.824;2023-06-14T00:41:24;97772.47;;;12.90;68.48
67397;BME280;57728;50.448;18.824;2023-06-14T00:43:27;97766.50;;;12.93;68.49
67397;BME280;57728;50.448;18.824;2023-06-14T00:45:28;97781.63;;;13.01;68.34
67397;BME280;57728;50.448;18.824;2023-06-14T00:47:29;97772.41;;;13.07;68.52
67397;BME280;57728;50.448;18.824;2023-06-14T00:49:32;97776.56;;;13.10;68.57
67397;BME280;57728;50.448;18.824;2023-06-14T00:51:33;97747.63;;;12.92;68.63
67397;BME280;57728;50.448;18.824;2023-06-14T00:53:35;97781.50;;;13.13;68.73
67397;BME280;57728;50.448;18.824;2023-06-14T00:55:37;97782.66;;;13.17;69.03
67397;BME280;57728;50.448;18.824;2023-06-14T00:57:40;97766.69;;;13.08;68.91
67397;BME280;57728;50.448;18.824;2023-06-14T00:59:47;97786.59;;;13.26;68.89
67397;BME280;57728;50.448;18.824;2023-06-14T01:01:51;97739.38;;;13.08;69.07
67397;BME280;57728;50.448;18.824;2023-06-14T01:03:52;97726.41;;;12.99;68.88
67397;BME280;57728;50.448;18.824;2023-06-14T01:06:19;97788.72;;;13.41;69.05
67397;BME280;57728;50.448;18.824;2023-06-14T01:11:12;97763.78;;;13.37;68.88
67397;BME280;57728;50.448;18.824;2023-06-14T01:13:29;97775.94;;;13.47;68.87
67397;BME280;57728;50.448;18.824;2023-06-14T01:15:37;97771.28;;;13.47;69.10
67397;BME280;57728;50.448;18.824;2023-06-14T01:17:41;97768.28;;;13.49;69.32
67397;BME280;57728;50.448;18.824;2023-06-14T01:19:46;97767.22;;;13.50;69.30
67397;BME280;57728;50.448;18.824;2023-06-14T01:21:49;97767.53;;;13.53;69.33
67397;BME280;57728;50.448;18.824;2023-06-14T01:23:52;97774.63;;;13.54;69.15
67397;BME280;57728;50.448;18.824;2023-06-14T01:25:55;97772.22;;;13.58;69.51
67397;BME280;57728;50.448;18.824;2023-06-14T01:28:05;97745.22;;;13.39;69.57
67397;BME280;57728;50.448;18.824;2023-06-14T01:30:12;97768.22;;;13.66;69.72
67397;BME280;57728;50.448;18.824;2023-06-14T01:32:15;97755.31;;;13.61;69.67
67397;BME280;57728;50.448;18.824;2023-06-14T01:34:18;97768.00;;;13.72;69.70
67397;BME280;57728;50.448;18.824;2023-06-14T01:36:20;97772.13;;;13.75;69.83
67397;BME280;57728;50.448;18.824;2023-06-14T01:38:27;97771.88;;;13.76;69.73
67397;BME280;57728;50.448;18.824;2023-06-14T01:40:34;97713.50;;;13.38;69.90
67397;BME280;57728;50.448;18.824;2023-06-14T01:42:38;97770.88;;;13.83;69.86
67397;BME280;57728;50.448;18.824;2023-06-14T01:44:43;97720.78;;;13.55;69.80
67397;BME280;57728;50.448;18.824;2023-06-14T01:46:48;97754.69;;;13.81;70.02
67397;BME280;57728;50.448;18.824;2023-06-14T01:48:50;97770.38;;;13.91;69.81
67397;BME280;57728;50.448;18.824;2023-06-14T01:50:52;97766.81;;;13.90;69.13
67397;BME280;57728;50.448;18.824;2023-06-14T01:52:56;97779.94;;;13.88;68.64
67397;BME280;57728;50.448;18.824;2023-06-14T01:54:57;97737.25;;;13.60;68.39
67397;BME280;57728;50.448;18.824;2023-06-14T01:56:59;97782.03;;;13.81;68.51
67397;BME280;57728;50.448;18.824;2023-06-14T01:59:01;97777.94;;;13.79;68.40
67397;BME280;57728;50.448;18.824;2023-06-14T02:01:03;97752.91;;;13.65;68.44
67397;BME280;57728;50.448;18.824;2023-06-14T02:03:06;97746.03;;;13.62;68.62
67397;BME280;57728;50.448;18.824;2023-06-14T02:05:08;97765.59;;;13.76;68.60
67397;BME280;57728;50.448;18.824;2023-06-14T02:07:09;97764.81;;;13.81;68.84
67397;BME280;57728;50.448;18.824;2023-06-14T02:09:11;97775.84;;;13.91;69.11
67397;BME280;57728;50.448;18.824;2023-06-14T02:11:13;97759.91;;;13.83;68.95
67397;BME280;57728;50.448;18.824;2023-06-14T02:13:15;97761.09;;;13.92;68.96
67397;BME280;57728;50.448;18.824;2023-06-14T02:15:17;97718.16;;;13.65;68.81
67397;BME280;57728;50.448;18.824;2023-06-14T02:17:22;97722.09;;;13.74;69.00
67397;BME280;57728;50.448;18.824;2023-06-14T02:19:25;97757.31;;;13.98;68.78
67397;BME280;57728;50.448;18.824;2023-06-14T02:21:27;97761.16;;;13.97;68.67
67397;BME280;57728;50.448;18.824;2023-06-14T02:23:28;97758.69;;;14.01;68.55
67397;BME280;57728;50.448;18.824;2023-06-14T02:25:30;97755.16;;;14.00;68.67
67397;BME280;57728;50.448;18.824;2023-06-14T02:27:32;97764.78;;;14.08;68.42
67397;BME280;57728;50.448;18.824;2023-06-14T02:29:33;97753.22;;;14.01;68.67
67397;BME280;57728;50.448;18.824;2023-06-14T02:31:40;97776.31;;;14.10;68.91
67397;BME280;57728;50.448;18.824;2023-06-14T02:33:42;97766.19;;;14.10;68.73
67397;BME280;57728;50.448;18.824;2023-06-14T02:35:43;97765.66;;;14.14;69.03
67397;BME280;57728;50.448;18.824;2023-06-14T02:37:45;97730.47;;;13.95;69.03
67397;BME280;57728;50.448;18.824;2023-06-14T02:39:47;97732.66;;;13.98;69.13
67397;BME280;57728;50.448;18.824;2023-06-14T02:41:49;97741.19;;;14.02;68.91
67397;BME280;57728;50.448;18.824;2023-06-14T02:43:55;97772.00;;;14.19;68.79
67397;BME280;57728;50.448;18.824;2023-06-14T02:45:59;97753.06;;;14.13;68.81
67397;BME280;57728;50.448;18.824;2023-06-14T02:48:00;97739.84;;;14.04;68.64
67397;BME280;57728;50.448;18.824;2023-06-14T02:50:03;97765.72;;;14.19;68.77
67397;BME280;57728;50.448;18.824;2023-06-14T02:52:05;97766.25;;;14.21;69.05
67397;BME280;57728;50.448;18.824;2023-06-14T02:54:07;97766.84;;;14.23;69.11
67397;BME280;57728;50.448;18.824;2023-06-14T02:56:09;97749.53;;;14.17;68.72
67397;BME280;57728;50.448;18.824;2023-06-14T02:58:13;97762.19;;;14.23;68.88
67397;BME280;57728;50.448;18.824;2023-06-14T03:00:14;97755.84;;;14.18;69.05
67397;BME280;57728;50.448;18.824;2023-06-14T03:02:18;97762.75;;;14.25;69.00
67397;BME280;57728;50.448;18.824;2023-06-14T03:04:20;97755.88;;;14.23;69.14
67397;BME280;57728;50.448;18.824;2023-06-14T03:06:22;97762.19;;;14.23;68.79
67397;BME280;57728;50.448;18.824;2023-06-14T03:08:27;97752.06;;;14.24;68.97
67397;BME280;57728;50.448;18.824;2023-06-14T03:10:32;97754.28;;;14.27;68.89
67397;BME280;57728;50.448;18.824;2023-06-14T03:12:34;97762.53;;;14.32;69.22
67397;BME280;57728;50.448;18.824;2023-06-14T03:14:37;97727.63;;;14.17;69.20
67397;BME280;57728;50.448;18.824;2023-06-14T03:16:39;97764.50;;;14.37;68.93
67397;BME280;57728;50.448;18.824;2023-06-14T03:18:45;97742.75;;;14.25;68.94
67397;BME280;57728;50.448;18.824;2023-06-14T03:20:47;97756.06;;;14.43;69.14
67397;BME280;57728;50.448;18.824;2023-06-14T03:22:48;97756.34;;;14.47;69.35
67397;BME280;57728;50.448;18.824;2023-06-14T03:24:50;97754.47;;;14.53;69.25
67397;BME280;57728;50.448;18.824;2023-06-14T03:26:53;97753.38;;;14.54;69.39
67397;BME280;57728;50.448;18.824;2023-06-14T03:28:55;97753.38;;;14.54;69.16
67397;BME280;57728;50.448;18.824;2023-06-14T03:30:58;97752.59;;;14.58;68.99
67397;BME280;57728;50.448;18.824;2023-06-14T03:33:02;97715.16;;;14.32;69.00
67397;BME280;57728;50.448;18.824;2023-06-14T03:35:05;97744.56;;;14.47;69.17
67397;BME280;57728;50.448;18.824;2023-06-14T03:37:07;97766.09;;;14.65;69.01
67397;BME280;57728;50.448;18.824;2023-06-14T03:39:10;97761.16;;;14.67;69.27
67397;BME280;57728;50.448;18.824;2023-06-14T03:41:14;97761.47;;;14.71;69.28
67397;BME280;57728;50.448;18.824;2023-06-14T03:43:16;97768.88;;;14.75;69.17
67397;BME280;57728;50.448;18.824;2023-06-14T03:45:18;97761.75;;;14.74;69.02
67397;BME280;57728;50.448;18.824;2023-06-14T03:47:19;97751.19;;;14.56;69.03
67397;BME280;57728;50.448;18.824;2023-06-14T03:49:21;97779.78;;;14.65;69.47
67397;BME280;57728;50.448;18.824;2023-06-14T03:51:23;97770.94;;;14.58;69.13
67397;BME280;57728;50.448;18.824;2023-06-14T03:53:26;97762.09;;;14.45;69.48
67397;BME280;57728;50.448;18.824;2023-06-14T03:55:30;97769.16;;;14.41;69.17
67397;BME280;57728;50.448;18.824;2023-06-14T03:57:33;97760.63;;;14.33;69.37
67397;BME280;57728;50.448;18.824;2023-06-14T03:59:35;97774.66;;;14.41;69.46
67397;BME280;57728;50.448;18.824;2023-06-14T04:01:37;97781.47;;;14.39;69.49
67397;BME280;57728;50.448;18.824;2023-06-14T04:03:46;97777.34;;;14.36;69.54
67397;BME280;57728;50.448;18.824;2023-06-14T04:05:48;97784.75;;;14.36;69.61
67397;BME280;57728;50.448;18.824;2023-06-14T04:07:50;97763.31;;;14.27;69.55
67397;BME280;57728;50.448;18.824;2023-06-14T04:09:54;97758.03;;;14.21;69.97
67397;BME280;57728;50.448;18.824;2023-06-14T04:11:56;97771.78;;;14.26;69.93
67397;BME280;57728;50.448;18.824;2023-06-14T04:13:59;97782.25;;;14.34;70.17
67397;BME280;57728;50.448;18.824;2023-06-14T04:16:04;97778.19;;;14.37;70.04
67397;BME280;57728;50.448;18.824;2023-06-14T04:18:09;97774.38;;;14.38;70.23
67397;BME280;57728;50.448;18.824;2023-06-14T04:20:10;97753.69;;;14.25;70.02
67397;BME280;57728;50.448;18.824;2023-06-14T04:22:14;97768.56;;;14.34;70.21
67397;BME280;57728;50.448;18.824;2023-06-14T04:24:15;97779.06;;;14.48;70.13
67397;BME280;57728;50.448;18.824;2023-06-14T04:26:19;97774.72;;;14.52;70.15
67397;BME280;57728;50.448;18.824;2023-06-14T04:28:24;97777.78;;;14.55;69.98
67397;BME280;57728;50.448;18.824;2023-06-14T04:30:26;97764.59;;;14.52;69.80
67397;BME280;57728;50.448;18.824;2023-06-14T04:32:32;97772.03;;;14.57;70.12
67397;BME280;57728;50.448;18.824;2023-06-14T04:34:41;97765.47;;;14.58;69.81
67397;BME280;57728;50.448;18.824;2023-06-14T04:36:44;97772.91;;;14.63;69.99
67397;BME280;57728;50.448;18.824;2023-06-14T04:38:55;97712.91;;;14.23;69.81
67397;BME280;57728;50.448;18.824;2023-06-14T04:40:59;97769.09;;;14.69;69.83
67397;BME280;57728;50.448;18.824;2023-06-14T04:43:03;97754.56;;;14.63;69.74
67397;BME280;57728;50.448;18.824;2023-06-14T04:45:08;97768.34;;;14.78;69.91
67397;BME280;57728;50.448;18.824;2023-06-14T04:47:13;97772.22;;;14.83;69.87
67397;BME280;57728;50.448;18.824;2023-06-14T04:49:18;97749.16;;;14.73;69.92
67397;BME280;57728;50.448;18.824;2023-06-14T04:51:19;97777.50;;;14.94;69.40
67397;BME280;57728;50.448;18.824;2023-06-14T04:53:24;97776.44;;;15.01;69.67
67397;BME280;57728;50.448;18.824;2023-06-14T04:55:28;97772.88;;;15.05;69.42
67397;BME280;57728;50.448;18.824;2023-06-14T04:57:31;97767.13;;;15.02;69.45
67397;BME280;57728;50.448;18.824;2023-06-14T04:59:35;97768.25;;;15.06;69.34
67397;BME280;57728;50.448;18.824;2023-06-14T05:01:37;97761.94;;;15.05;69.59
67397;BME280;57728;50.448;18.824;2023-06-14T05:03:44;97777.38;;;15.22;69.37
67397;BME280;57728;50.448;18.824;2023-06-14T05:05:51;97786.44;;;15.27;69.05
67397;BME280;57728;50.448;18.824;2023-06-14T05:07:54;97782.88;;;15.32;69.24
67397;BME280;57728;50.448;18.824;2023-06-14T05:09:55;97710.03;;;14.88;69.19
67397;BME280;57728;50.448;18.824;2023-06-14T05:11:57;97775.81;;;15.41;69.27
67397;BME280;57728;50.448;18.824;2023-06-14T05:14:01;97743.91;;;15.25;68.96
67397;BME280;57728;50.448;18.824;2023-06-14T05:16:03;97786.81;;;15.52;68.95
67397;BME280;57728;50.448;18.824;2023-06-14T05:18:05;97764.84;;;15.41;68.69
67397;BME280;57728;50.448;18.824;2023-06-14T05:20:09;97789.03;;;15.60;69.12
67397;BME280;57728;50.448;18.824;2023-06-14T05:22:11;97790.16;;;15.64;68.74
67397;BME280;57728;50.448;18.824;2023-06-14T05:24:14;97784.94;;;15.62;68.61
67397;BME280;57728;50.448;18.824;2023-06-14T05:26:15;97795.09;;;15.67;68.64
67397;BME280;57728;50.448;18.824;2023-06-14T05:28:17;97796.75;;;15.68;68.43
67397;BME280;57728;50.448;18.824;2023-06-14T05:30:19;97776.44;;;15.64;68.55
67397;BME280;57728;50.448;18.824;2023-06-14T05:32:21;97796.47;;;15.70;68.48
67397;BME280;57728;50.448;18.824;2023-06-14T05:34:22;97790.72;;;15.71;68.55
67397;BME280;57728;50.448;18.824;2023-06-14T05:36:24;97785.75;;;15.73;68.28
67397;BME280;57728;50.448;18.824;2023-06-14T05:38:26;97789.63;;;15.72;68.85
67397;BME280;57728;50.448;18.824;2023-06-14T05:40:28;97733.53;;;15.37;68.37
67397;BME280;57728;50.448;18.824;2023-06-14T05:42:32;97782.47;;;15.66;68.43
67397;BME280;57728;50.448;18.824;2023-06-14T05:44:33;97811.03;;;15.75;68.88
67397;BME280;57728;50.448;18.824;2023-06-14T05:46:35;97803.94;;;15.79;68.61
67397;BME280;57728;50.448;18.824;2023-06-14T05:48:38;97812.47;;;15.88;68.42
67397;BME280;57728;50.448;18.824;2023-06-14T05:50:39;97803.16;;;15.89;68.50
67397;BME280;57728;50.448;18.824;2023-06-14T05:52:40;97790.47;;;15.78;68.11
67397;BME280;57728;50.448;18.824;2023-06-14T05:54:42;97789.94;;;15.81;67.93
67397;BME280;57728;50.448;18.824;2023-06-14T05:56:44;97801.22;;;15.90;68.40
67397;BME280;57728;50.448;18.824;2023-06-14T05:58:46;97804.53;;;15.97;68.22
67397;BME280;57728;50.448;18.824;2023-06-14T06:00:49;97759.44;;;15.72;68.51
67397;BME280;57728;50.448;18.824;2023-06-14T06:02:51;97746.81;;;15.71;68.20
67397;BME280;57728;50.448;18.824;2023-06-14T06:04:52;97734.16;;;15.70;68.53
67397;BME280;57728;50.448;18.824;2023-06-14T06:06:54;97810.06;;;16.28;68.42
67397;BME280;57728;50.448;18.824;2023-06-14T06:08:55;97799.34;;;16.31;68.21
67397;BME280;57728;50.448;18.824;2023-06-14T06:10:57;97807.59;;;16.42;67.78
67397;BME280;57728;50.448;18.824;2023-06-14T06:12:59;97807.59;;;16.47;67.92
67397;BME280;57728;50.448;18.824;2023-06-14T06:15:01;97812.81;;;16.54;67.93
67397;BME280;57728;50.448;18.824;2023-06-14T06:17:02;97814.47;;;16.60;67.72
67397;BME280;57728;50.448;18.824;2023-06-14T06:19:04;97808.44;;;16.63;67.63
67397;BME280;57728;50.448;18.824;2023-06-14T06:21:06;97817.19;;;16.75;67.67
67397;BME280;57728;50.448;18.824;2023-06-14T06:23:07;97817.72;;;16.88;67.10
67397;BME280;57728;50.448;18.824;2023-06-14T06:25:11;97811.16;;;16.99;66.65
67397;BME280;57728;50.448;18.824;2023-06-14T06:27:13;97815.56;;;17.05;66.75
67397;BME280;57728;50.448;18.824;2023-06-14T06:29:14;97819.91;;;17.16;66.65
67397;BME280;57728;50.448;18.824;2023-06-14T06:31:16;97823.47;;;17.22;66.32
67397;BME280;57728;50.448;18.824;2023-06-14T06:33:17;97825.09;;;17.23;65.83
67397;BME280;57728;50.448;18.824;2023-06-14T06:35:19;97832.28;;;17.24;65.48
67397;BME280;57728;50.448;18.824;2023-06-14T06:37:21;97811.09;;;17.09;65.93
67397;BME280;57728;50.448;18.824;2023-06-14T06:39:22;97833.66;;;17.22;65.48
67397;BME280;57728;50.448;18.824;2023-06-14T06:41:23;97835.88;;;17.19;65.58
67397;BME280;57728;50.448;18.824;2023-06-14T06:43:26;97828.72;;;17.18;65.34
67397;BME280;57728;50.448;18.824;2023-06-14T06:45:27;97820.22;;;17.10;65.35
67397;BME280;57728;50.448;18.824;2023-06-14T06:47:28;97835.59;;;17.16;65.11
67397;BME280;57728;50.448;18.824;2023-06-14T06:49:30;97835.31;;;17.17;65.29
67397;BME280;57728;50.448;18.824;2023-06-14T06:51:32;97836.69;;;17.20;64.81
67397;BME280;57728;50.448;18.824;2023-06-14T06:53:33;97833.41;;;17.18;65.04
67397;BME280;57728;50.448;18.824;2023-06-14T06:55:35;97833.41;;;17.18;65.09
67397;BME280;57728;50.448;18.824;2023-06-14T06:57:37;97833.41;;;17.18;64.89
67397;BME280;57728;50.448;18.824;2023-06-14T06:59:38;97836.97;;;17.18;65.15
67397;BME280;57728;50.448;18.824;2023-06-14T07:01:41;97837.50;;;17.21;65.10
67397;BME280;57728;50.448;18.824;2023-06-14T07:03:42;97839.72;;;17.24;64.93
67397;BME280;57728;50.448;18.824;2023-06-14T07:05:44;97833.09;;;17.25;64.59
67397;BME280;57728;50.448;18.824;2023-06-14T07:07:46;97837.25;;;17.22;64.83
67397;BME280;57728;50.448;18.824;2023-06-14T07:09:48;97849.63;;;17.19;64.59
67397;BME280;57728;50.448;18.824;2023-06-14T07:11:49;97844.94;;;17.15;64.92
67397;BME280;57728;50.448;18.824;2023-06-14T07:13:51;97840.84;;;17.07;64.78
67397;BME280;57728;50.448;18.824;2023-06-14T07:15:59;97845.25;;;17.03;65.05
67397;BME280;57728;50.448;18.824;2023-06-14T07:18:04;97838.66;;;16.94;65.22
67397;BME280;57728;50.448;18.824;2023-06-14T07:20:09;97850.47;;;17.05;65.76
67397;BME280;57728;50.448;18.824;2023-06-14T07:22:14;97849.09;;;17.07;66.17
67397;BME280;57728;50.448;18.824;2023-06-14T07:24:15;97847.69;;;17.15;65.76
67397;BME280;57728;50.448;18.824;2023-06-14T07:26:17;97857.56;;;17.31;65.99
67397;BME280;57728;50.448;18.824;2023-06-14T07:28:19;97851.72;;;17.48;66.21
67397;BME280;57728;50.448;18.824;2023-06-14T07:30:20;97857.75;;;17.66;66.13
67397;BME280;57728;50.448;18.824;2023-06-14T07:32:25;97862.09;;;17.77;65.80
67397;BME280;57728;50.448;18.824;2023-06-14T07:34:26;97867.53;;;17.87;65.40
67397;BME280;57728;50.448;18.824;2023-06-14T07:36:28;97862.31;;;17.91;64.80
67397;BME280;57728;50.448;18.824;2023-06-14T07:38:31;97858.47;;;17.92;64.61
67397;BME280;57728;50.448;18.824;2023-06-14T07:40:34;97864.25;;;17.96;64.63
67397;BME280;57728;50.448;18.824;2023-06-14T07:42:35;97864.19;;;18.01;64.24
67397;BME280;57728;50.448;18.824;2023-06-14T07:44:38;97841.94;;;17.92;64.46
67397;BME280;57728;50.448;18.824;2023-06-14T07:46:39;97864.69;;;18.13;64.01
67397;BME280;57728;50.448;18.824;2023-06-14T07:48:41;97869.63;;;18.16;63.58
67397;BME280;57728;50.448;18.824;2023-06-14T07:50:43;97879.00;;;18.15;63.58
67397;BME280;57728;50.448;18.824;2023-06-14T07:52:45;97871.28;;;18.12;63.79
67397;BME280;57728;50.448;18.824;2023-06-14T07:54:47;97868.59;;;18.02;63.70
67397;BME280;57728;50.448;18.824;2023-06-14T07:56:50;97879.34;;;17.98;63.28
67397;BME280;57728;50.448;18.824;2023-06-14T07:58:52;97880.22;;;17.83;63.74
67397;BME280;57728;50.448;18.824;2023-06-14T08:00:53;97878.06;;;17.70;63.74
67397;BME280;57728;50.448;18.824;2023-06-14T08:02:55;97874.00;;;17.57;63.62
67397;BME280;57728;50.448;18.824;2023-06-14T08:05:00;97877.34;;;17.49;63.79
67397;BME280;57728;50.448;18.824;2023-06-14T08:07:01;97888.34;;;17.39;64.45
67397;BME280;57728;50.448;18.824;2023-06-14T08:09:03;97883.69;;;17.29;64.21
67397;BME280;57728;50.448;18.824;2023-06-14T08:11:05;97875.75;;;17.12;64.35
67397;BME280;57728;50.448;18.824;2023-06-14T08:13:06;97887.31;;;17.14;65.11
67397;BME280;57728;50.448;18.824;2023-06-14T08:15:09;97878.50;;;17.12;65.02
67397;BME280;57728;50.448;18.824;2023-06-14T08:17:11;97876.59;;;17.07;65.49
67397;BME280;57728;50.448;18.824;2023-06-14T08:19:12;97882.91;;;17.08;65.83
67397;BME280;57728;50.448;18.824;2023-06-14T08:21:18;97874.41;;;17.04;65.69
67397;BME280;57728;50.448;18.824;2023-06-14T08:23:20;97807.31;;;16.64;65.92
67397;BME280;57728;50.448;18.824;2023-06-14T08:25:22;97882.91;;;16.97;65.98
67397;BME280;57728;50.448;18.824;2023-06-14T08:27:25;97867.50;;;16.81;66.09
67397;BME280;57728;50.448;18.824;2023-06-14T08:29:26;97882.34;;;16.80;66.42
67397;BME280;57728;50.448;18.824;2023-06-14T08:31:30;97883.44;;;16.74;66.39
67397;BME280;57728;50.448;18.824;2023-06-14T08:33:33;97868.31;;;16.61;66.78
67397;BME280;57728;50.448;18.824;2023-06-14T08:35:35;97817.19;;;16.24;66.70
67397;BME280;57728;50.448;18.824;2023-06-14T08:37:42;97881.53;;;16.69;66.96
67397;BME280;57728;50.448;18.824;2023-06-14T08:39:44;97884.84;;;16.71;66.92
67397;BME280;57728;50.448;18.824;2023-06-14T08:41:47;97898.28;;;16.78;67.10
67397;BME280;57728;50.448;18.824;2023-06-14T08:43:52;97894.19;;;16.85;67.09
67397;BME280;57728;50.448;18.824;2023-06-14T08:45:59;97891.97;;;16.98;66.95
67397;BME280;57728;50.448;18.824;2023-06-14T08:48:04;97883.22;;;17.01;66.99
67397;BME280;57728;50.448;18.824;2023-06-14T08:50:08;97881.56;;;17.00;66.86
67397;BME280;57728;50.448;18.824;2023-06-14T08:52:13;97883.75;;;17.08;66.75
67397;BME280;57728;50.448;18.824;2023-06-14T08:54:20;97873.84;;;17.02;66.18
67397;BME280;57728;50.448;18.824;2023-06-14T08:56:22;97879.88;;;17.09;66.46
67397;BME280;57728;50.448;18.824;2023-06-14T08:58:30;97902.16;;;17.18;66.54
67397;BME280;57728;50.448;18.824;2023-06-14T09:00:32;97906.81;;;17.17;66.68
67397;BME280;57728;50.448;18.824;2023-06-14T09:02:34;97908.47;;;17.18;66.30
67397;BME280;57728;50.448;18.824;2023-06-14T09:04:37;97906.00;;;17.12;66.96
67397;BME280;57728;50.448;18.824;2023-06-14T09:06:38;97911.78;;;17.26;66.83
67397;BME280;57728;50.448;18.824;2023-06-14T09:08:42;97912.88;;;17.30;66.36
67397;BME280;57728;50.448;18.824;2023-06-14T09:10:45;97915.34;;;17.31;66.19
67397;BME280;57728;50.448;18.824;2023-06-14T09:12:46;97918.66;;;17.33;66.14
67397;BME280;57728;50.448;18.824;2023-06-14T09:14:48;97907.38;;;17.30;66.25
67397;BME280;57728;50.448;18.824;2023-06-14T09:16:54;97910.66;;;17.42;65.67
67397;BME280;57728;50.448;18.824;2023-06-14T09:18:55;97922.19;;;17.44;66.14
67397;BME280;57728;50.448;18.824;2023-06-14T09:20:58;97920.00;;;17.46;65.64
67397;BME280;57728;50.448;18.824;2023-06-14T09:23:01;97923.00;;;17.50;65.91
67397;BME280;57728;50.448;18.824;2023-06-14T09:25:03;97921.09;;;17.50;65.59
67397;BME280;57728;50.448;18.824;2023-06-14T09:27:06;97908.44;;;17.44;66.11
67397;BME280;57728;50.448;18.824;2023-06-14T09:29:09;97905.16;;;17.42;66.08
67397;BME280;57728;50.448;18.824;2023-06-14T09:31:17;97918.06;;;17.52;65.86
67397;BME280;57728;50.448;18.824;2023-06-14T09:33:19;97871.59;;;17.25;66.44
67397;BME280;57728;50.448;18.824;2023-06-14T09:35:22;97919.16;;;17.51;66.88
67397;BME280;57728;50.448;18.824;2023-06-14T09:37:31;97919.69;;;17.58;67.30
67397;BME280;57728;50.448;18.824;2023-06-14T09:39:33;97910.28;;;17.75;67.46
67397;BME280;57728;50.448;18.824;2023-06-14T09:41:42;97910.78;;;17.97;67.24
67397;BME280;57728;50.448;18.824;2023-06-14T09:43:46;97915.34;;;18.23;67.08
67397;BME280;57728;50.448;18.824;2023-06-14T09:45:48;97913.53;;;18.47;66.46
67397;BME280;57728;50.448;18.824;2023-06-14T09:47:54;97907.94;;;18.58;65.17
67397;BME280;57728;50.448;18.824;2023-06-14T09:49:56;97910.59;;;18.73;64.39
67397;BME280;57728;50.448;18.824;2023-06-14T09:51:59;97909.19;;;18.76;64.41
67397;BME280;57728;50.448;18.824;2023-06-14T09:54:03;97922.38;;;18.84;63.99
67397;BME280;57728;50.448;18.824;2023-06-14T09:56:10;97911.06;;;18.90;63.33
67397;BME280;57728;50.448;18.824;2023-06-14T09:58:14;97909.41;;;18.89;62.66
67397;BME280;57728;50.448;18.824;2023-06-14T10:00:20;97918.22;;;18.86;62.36
67397;BME280;57728;50.448;18.824;2023-06-14T10:02:29;97917.78;;;18.69;62.44
67397;BME280;57728;50.448;18.824;2023-06-14T10:04:34;97927.22;;;18.63;62.81
67397;BME280;57728;50.448;18.824;2023-06-14T10:06:38;97922.31;;;18.54;62.62
67397;BME280;57728;50.448;18.824;2023-06-14T10:08:43;97920.78;;;18.38;62.95
67397;BME280;57728;50.448;18.824;2023-06-14T10:10:46;97915.88;;;18.19;62.88
67397;BME280;57728;50.448;18.824;2023-06-14T10:12:49;97916.44;;;18.16;63.44
67397;BME280;57728;50.448;18.824;2023-06-14T10:14:52;97925.56;;;18.12;63.42
67397;BME280;57728;50.448;18.824;2023-06-14T10:23:51;97917.63;;;18.05;64.35
67397;BME280;57728;50.448;18.824;2023-06-14T10:25:57;97917.03;;;18.08;63.94
67397;BME280;57728;50.448;18.824;2023-06-14T10:30:25;97920.28;;;18.20;63.94
67397;BME280;57728;50.448;18.824;2023-06-14T10:32:28;97899.34;;;18.19;64.14
67397;BME280;57728;50.448;18.824;2023-06-14T10:34:31;97926.22;;;18.48;63.90
67397;BME280;57728;50.448;18.824;2023-06-14T10:36:32;97920.84;;;18.67;64.00
67397;BME280;57728;50.448;18.824;2023-06-14T10:38:37;97915.47;;;18.86;63.92
67397;BME280;57728;50.448;18.824;2023-06-14T10:40:40;97909.31;;;19.00;62.87
67397;BME280;57728;50.448;18.824;2023-06-14T10:42:51;97910.63;;;19.07;62.83
67397;BME280;57728;50.448;18.824;2023-06-14T10:44:54;97911.41;;;19.13;62.27
67397;BME280;57728;50.448;18.824;2023-06-14T10:47:01;97903.72;;;19.10;62.36
67397;BME280;57728;50.448;18.824;2023-06-14T10:49:04;97916.78;;;19.29;61.75
67397;BME280;57728;50.448;18.824;2023-06-14T10:51:20;97864.97;;;19.20;62.17
67397;BME280;57728;50.448;18.824;2023-06-14T10:53:22;97881.78;;;19.48;61.61
67397;BME280;57728;50.448;18.824;2023-06-14T10:55:25;97903.16;;;19.91;61.14